Timeline UpdatesTrip UpdatesNews PostsPvt Posts♥♥Travel TipsAdmin PostsConv PostsFollowed PostsChat RequestsBlog PostsPNR Posts

Disclaimer
Search
 
 
Mon Nov 24, 2014 14:59:15 ISTHomeTrainsΣChainsAtlasPNRForumGalleryNewsFAQTripsMembersLoginFeedback
No Recent News for this Train
Other Trains in the News **new
Latest...
..
Sun Nov 23, 2014 (08:13PM)
⇐ Return Journey: Train# 56516

56515/Bangalore City - Hubli Passenger (UnReserved)

Time-Table HAS CHANGED.
Yesterday (8:13PM)
Change Departure Station:
Change Arrival Station:
Post a Train Travel TipPost a Train Travel Tip **new
Post a Comment/Question/Picture/VideoPost a Comment/Question/Picture/Video
Pantry/Catering
✕ NO Pantry Car
✓ Catering Avbl
By enroute vendors
RSA - Rake Sharing
56501/02 Vijayawada Hubli Pass 56503/04 Vijayawada YPR Pass
Rake/Coach Composition
Loco
KJM WDM/G 3A/WDP-4
News    PNR    Forum    Time-Table    Availability    Fare Chart    Map    Arr/Dep History    Trips    Gallery    ΣChains    X/O    Timeline    
Travel Time: 9h 33m    34 halts    Distance: 315 km    Avg Speed: 32 km/hr
Type: Passenger
Zone: SWR/South Western
Departs @ 11:17
Platform# 1
SMTWTFS
Adihalli/ADHL 
Arrives @ 20:50
Platform# ???
SMTWTFS
Hubli Junction/UBL 

34 halts. 37 intermediate Stations between Adihalli and Hubli Junction

Show ALL intermediate Stations  Show Old Time-Table

#TrkCodeStation NameX/OArrivesAvgDepartsAvgHaltPFDay#KmSpeedElevZoneAddress
1/==/SBCBangalore City Junction (10)  -07:45-101-155.042903mSWRBengaluru-560023, Karnataka
2/==/MWMMalleswaram (2)X  07:49-07:50-1m--1-152.221916mSWRBengaluru, Karnataka
3/==%YPRYesvantpur Junction (6)  08:01 07:58-08:02 08:00-1 2m31-149.448919mSWRBengaluru 560022, Karnataka
4|==/BAWChikbanavar Junction (5)  08:11 08:10-08:12-1 2m31-141.352881mSWRNMGA, Karnataka
5|==/SDVLSoldevanahalli (3)X  08:15-08:16-1m21-138.776865mSWRBengaluru, Karnataka
6|==|GHLGolhalli (3)  08:24-08:25-1m--1-128.699899mSWRState Highway 74, Karnataka
7|==|BNKHBhairanayakanahalli (2)  08:29-08:30-1m21-122.067903mSWRState Highway 74, Karnataka
8|==|DBLDodbele  08:34-08:35-1m31-117.657907mSWRNational Highway 4, Karnataka
9|==|MDLLMuddalingana Halli (2)X  08:41-08:42-1m--1-111.975891mSWRNH 207, Karnataka
10|==|NDVNidvanda (3)  08:46 08:45-08:47 08:46-1m21-108.162912mSWRNH 207, Karnataka
11|==|DBSDobbspet (2)  08:50 08:49-08:51 08:50-1m11-105.062917mSWRTumkur Dist., Karnataka
12|==|HHLHirehaliX  09:00 08:58-09:01 08:59-1m21-96.736848mSWRNH 4, Karnataka
13|==|KIATKyatsandra (4)O  09:09-09:10-1m--1-90.739841mSWRTumkur, Karnataka
14|==|TKTumkur (3)  09:34 09:18-09:35 09:20-1 2m--1-85.492823mSWRTumkur, Karnataka
15|--|HEIHeggere Halt (1)X  09:40 09:24-09:41 09:25-1m11-79.336804mSWRHeggere, Karnataka
16|--|MLSAMallasandra (2)  09:45 09:31-09:46 09:32-1m--1-75.750802mSWRTumkur., Karnataka
17|--|GBBGubbi (1)  09:59 09:42-10:00 09:43-1m11-67.362780mSWRGubbi, Karnataka
18|--|NTRNittur (1)X  10:14 09:52-10:15 09:53-1m11-58.174789mSWRNH 206, Karnataka
19|--|SPGRSampige Road (2)  10:24 10:02-10:25 10:03-1m--1-47.058831mSWRTumkur, Karnataka
20|--|AMSAAmmasandra (1)  10:32 10:09-10:33 10:10-1m11-41.249858mSWRTumkur Dist., Karnataka
21|--|BSNBanasandra (1)  10:41 10:17-10:42 10:18-1m11-35.449851mSWRTumkur Dist., Karnataka
22|--|ARGPAralaguppe  10:47 10:24-10:48 10:25-1m--1-30.535843mSWRState Highway 74, Karnataka
23|--|RDIKardi  10:57 10:34-10:58 10:35-1m--1-25.281843mSWRKaradi Cross, Karnataka
24|--|BNKBanashankari HaltX  11:02 10:39-11:03 10:40-1m--1-19.825849mSWRNational Highway 206, Karnataka
25|--|TTRTiptur (4)  11:19 10:53-11:20 10:55-1 2m--1-14.446860mSWRTiptur, Karnataka
26|--|SSNHSree Saradanagar Hal (1)  11:24 10:58-11:25 10:59-1m11-12.144876mSWRTiptur, Karnataka
27|--|HVLHonnavalli Road (3)X  11:34 11:09-11:35 11:10-1m--1-4.747888mSWRNational Highway 206, Karnataka
28|--|ADHLAdihalli (1)»X  11:39 11:16-11:40 11:17-1m110.020870mSWRNational Highway 206, Karnataka
29|--|ASKArsikere Junction (3)X  12:09 11:50-12:10 11:55-1 5m--111.167816mSWRArsikere, Karnataka
30|==|BVRBanavar (2)  12:24 12:09-12:25 12:10-1m--126.747790mSWRNH 73, Karnataka
31|==|VNRDevanur (2)  12:34 12:19-12:35 12:20-1m--133.767757mSWRDevanur Railway Station, Karnataka
32|==|BLKRBallekere Halt  12:44 12:29-12:45 12:30-1m--143.839780mSWRNational Highway 206, Karnataka
33|==|DRUKadur Junction (3)  12:54 12:40-12:55 12:42-1 2m--150.222774mSWRKadur, Karnataka
34|==|RRBBirur Junction (3)  13:09 12:58-13:10 13:00-1 2m--156.169802mSWRBirur, Karnataka
35|==|NVFNagavangala  13:20 13:09-13:21 13:10-1m--166.542809mSWRMelanahalli Rd, Karnataka
36|==|AJPAjjampur (2)X  13:30 13:21-13:31 13:22-1m--174.254752mSWRAjjampur, Karnataka
37|==!SHVShivaniX  13:42 13:34-13:43 13:35-1m--185.043779mSWRShivani Rd, Karnataka
38!==!HSDHosdurga Road (1)  13:54 13:49-13:55 13:50-1m1194.946765mSWRChitradurga Dist., Karnataka
39!==!ABGTArbagatta Halt  13:59 13:55-14:00 13:56-1m--198.833735mSWRState Highway 47, Karnataka
40!==!RGIRamgiriX  14:12 14:09-14:13 14:10-1m--1106.039705mSWRShivani Rd, Karnataka
41!==!HLKHolalkere  14:24-14:25-1m--1115.030661mSWRNational Highway 13, Karnataka
42!=-|JRUChikjajur Junction (3)  14:54 14:45-14:55 14:50-1 5m--1124.965677mSWRChikkajajur, Karnataka
43|--|SLUSasalu  15:05 14:59-15:06 15:00-1m--1134.753660mSWRState Highway 47, Karnataka
44|--|MYKMayakonda (2)  15:14 15:09-15:15 15:10-1m--1142.755646mSWRState Highway 47, Karnataka
45|--|KAGKodaganurX  15:24 15:19-15:25 15:20-1m--1150.971633mSWRState Highway 47, Karnataka
46|--|HNHHanumanahalli  15:29 15:24-15:30 15:25-1m--1155.640621mSWRHiretogaleri, Karnataka
47|--|THNTolahunse (2)  15:39 15:34-15:40 15:35-1m--1161.647614mSWRTholahunase, Karnataka
48|--|DVGDavangere (2)X  16:28 15:47-16:30 15:50-2 3m--1171.122598mSWRDavanagere, Karnataka
49|--|HRRHarihar (3)  16:59 16:25-17:00 16:30-1 5m--1183.954553mSWRHarihar, Karnataka
50|--|CLIChalgeri (2)X  17:11 16:41-17:12 16:42-1m--1193.847574mSWRChalageri, Karnataka
51|--|RNRRanibennur (3)  17:26 16:59-17:27 17:00-1m--1207.245583mSWRRanebennur, Karnataka
52|--|DADDevargudda (2)X  17:37 17:11-17:38 17:12-1m--1215.451589mSWRDevaragudda, Karnataka
53|--|BYDByadgi (2)  17:47 17:24-17:48 17:25-1m--1225.747632mSWRNational Highway 4, Karnataka
54|--|HVRHaveri (3)O  18:04 17:43-18:05 17:45-1 2m--1239.848558mSWRHaveri, Karnataka
55|--|KJGKarajgi (2)O  18:14 17:54-18:15 17:55-1m--1247.066550mSWRhaveri, Karnataka
56|--|KVSKalsurO  18:19 17:59-18:20 18:00-1m--1251.435541mSWRNH 48, Karnataka
57|--|SVNRSavanur (2)X  18:34 18:14-18:35 18:15-1m--1259.637584mSWRState Highway 6, Karnataka
58|--|YLGYalvigi (2)X  18:44 18:29-18:45 18:30-1m--1268.291621mSWRYalvigi, Karnataka
59|--|KALSKalas Halt  18:49 18:34-18:50 18:35-1m--1274.223663mSWRState Highway 6, Karnataka
60|--|GDIGudgeri (2)X  19:01 18:49-19:02 18:50-1m--1279.735689mSWRGudgeri, Karnataka
61|--|SNHSaunshi (2)X  19:13 19:09-19:15 19:10-2 1m--1290.936634mSWRSaunshi, Karnataka
62|--|KNOKundgol (2)X  19:28 19:24-19:30 19:25-2 1m--1299.211636mSWRKundgol, Karnataka
63|--|UBLHubli Junction (5)•  20:20 20:50----1314.9-640mSWRHubli - 580020, Karnataka
Scroll to Top
Scroll to Bottom